createdAt,value
2017-05-23T00:00:22.601Z,82
2017-05-23T00:01:35.150Z,81.81
2017-05-23T00:02:47.712Z,81.81
2017-05-23T00:03:59.966Z,81.9
2017-05-23T00:05:12.563Z,81.71
2017-05-23T00:06:25.133Z,81.71
2017-05-23T00:07:37.708Z,82.19
2017-05-23T00:08:50.276Z,82.29
2017-05-23T00:10:02.808Z,82.19
2017-05-23T00:11:14.813Z,82.29
2017-05-23T00:12:26.850Z,82.09
2017-05-23T00:13:39.126Z,82.19
2017-05-23T00:14:51.646Z,82.19
2017-05-23T00:16:03.893Z,82.09
2017-05-23T00:17:16.178Z,82.38
2017-05-23T00:18:28.474Z,82.57
2017-05-23T00:19:41.019Z,82.29
2017-05-23T00:20:53.585Z,82.38
2017-05-23T00:22:06.212Z,82.67
2017-05-23T00:23:18.793Z,82.29
2017-05-23T00:24:31.365Z,82.67
2017-05-23T00:25:43.623Z,82.19
2017-05-23T00:26:55.589Z,82.67
2017-05-23T00:28:08.187Z,83.24
2017-05-23T00:29:21.056Z,82.95
2017-05-23T00:30:33.654Z,82.86
2017-05-23T00:31:46.231Z,83.53
2017-05-23T00:32:58.826Z,83.11
2017-05-23T00:34:11.393Z,83.01
2017-05-23T00:35:23.360Z,82.82
2017-05-23T00:36:35.912Z,83.29
2017-05-23T00:37:48.504Z,83.48
2017-05-23T00:39:01.047Z,83.11
2017-05-23T00:40:13.625Z,83.96
2017-05-23T00:41:26.193Z,84.16
2017-05-23T00:42:38.758Z,83.87
2017-05-23T00:43:51.331Z,84.53
2017-05-23T00:45:03.878Z,84.06
2017-05-23T00:46:16.773Z,84.25
2017-05-23T00:47:29.346Z,84.06
2017-05-23T00:48:41.876Z,84.53
2017-05-23T00:49:54.412Z,84.72
2017-05-23T00:51:07.031Z,84.16
2017-05-23T00:52:19.603Z,84.63
2017-05-23T00:53:32.147Z,84.06
2017-05-23T00:54:44.725Z,84.25
2017-05-23T00:55:57.320Z,84.53
2017-05-23T00:57:09.585Z,84.53
2017-05-23T00:58:21.564Z,84.72
2017-05-23T00:59:34.114Z,84.34
2017-05-23T01:00:46.781Z,84.53
2017-05-23T01:01:59.620Z,84.44
2017-05-23T01:03:11.896Z,84.63
2017-05-23T01:04:24.161Z,84.72
2017-05-23T01:05:36.400Z,85.11
2017-05-23T01:06:48.978Z,84.92
2017-05-23T01:08:01.523Z,84.82
2017-05-23T01:09:13.798Z,85.3
2017-05-23T01:10:26.372Z,85.58
2017-05-23T01:11:38.913Z,84.92
2017-05-23T01:12:51.513Z,85.68
2017-05-23T01:14:03.735Z,85.58
2017-05-23T01:15:16.300Z,85.3
2017-05-23T01:16:28.828Z,85.39
2017-05-23T01:17:41.441Z,85.68
2017-05-23T01:18:54.016Z,85.3
2017-05-23T01:20:06.592Z,85.49
2017-05-23T01:21:18.878Z,85.49
2017-05-23T01:22:31.153Z,85.58
2017-05-23T01:23:43.420Z,85.39
2017-05-23T01:24:55.735Z,85.11
2017-05-23T01:26:08.256Z,85.39
2017-05-23T01:27:20.807Z,85.93
2017-05-23T01:28:33.329Z,85.45
2017-05-23T01:29:45.863Z,85.49
2017-05-23T01:30:58.148Z,85.83
2017-05-23T01:32:10.676Z,86.02
2017-05-23T01:33:23.244Z,85.93
2017-05-23T01:34:36.134Z,85.54
2017-05-23T01:35:48.707Z,86.11
2017-05-23T01:37:01.257Z,86.02
2017-05-23T01:38:13.572Z,85.64
2017-05-23T01:39:26.174Z,86.11
2017-05-23T01:40:38.713Z,86.02
2017-05-23T01:41:51.243Z,86.11
2017-05-23T01:43:03.798Z,86.3
2017-05-23T01:44:16.019Z,86.21
2017-05-23T01:45:28.847Z,86.11
2017-05-23T01:46:41.418Z,86.11
2017-05-23T01:47:53.688Z,86.21
2017-05-23T01:49:06.253Z,86.21
2017-05-23T01:50:18.813Z,86.02
2017-05-23T01:51:31.082Z,86.4
2017-05-23T01:52:43.348Z,86.3
2017-05-23T01:53:55.586Z,86.21
2017-05-23T01:55:08.125Z,86.4
2017-05-23T01:56:20.711Z,86.69
2017-05-23T01:57:33.262Z,86.49
2017-05-23T01:58:45.487Z,86.4
2017-05-23T01:59:58.080Z,86.78
2017-05-23T02:01:10.401Z,86.78
2017-05-23T02:02:22.990Z,86.78
2017-05-23T02:03:35.591Z,86.69
2017-05-23T02:04:48.131Z,87.07
2017-05-23T02:06:00.410Z,87.16
2017-05-23T02:07:12.941Z,86.98
2017-05-23T02:08:25.526Z,86.98
2017-05-23T02:09:38.114Z,87.54
2017-05-23T02:10:50.736Z,87.26
2017-05-23T02:12:03.398Z,87.74
2017-05-23T02:13:15.710Z,87.54
2017-05-23T02:14:28.284Z,87.69
2017-05-23T02:15:40.903Z,87.02
2017-05-23T02:16:53.491Z,87.4
2017-05-23T02:18:05.792Z,87.4
2017-05-23T02:19:17.464Z,87.21
2017-05-23T02:20:29.738Z,87.21
2017-05-23T02:21:42.323Z,87.93
2017-05-23T02:22:54.544Z,87.79
2017-05-23T02:24:06.816Z,87.6
2017-05-23T02:25:19.412Z,87.6
2017-05-23T02:26:31.635Z,88.26
2017-05-23T02:27:44.163Z,88.45
2017-05-23T02:28:57.024Z,88.36
2017-05-23T02:30:09.569Z,87.79
2017-05-23T02:31:22.148Z,88.36
2017-05-23T02:32:34.421Z,88.17
2017-05-23T02:33:46.984Z,88.17
2017-05-23T02:34:59.243Z,88.07
2017-05-23T02:36:11.826Z,88.17
2017-05-23T02:37:24.377Z,88.26
2017-05-23T02:38:36.967Z,88.55
2017-05-23T02:39:49.214Z,88.55
2017-05-23T02:41:01.815Z,88.84
2017-05-23T02:42:14.406Z,88.74
2017-05-23T02:43:26.675Z,88.93
2017-05-23T02:44:38.978Z,88.93
2017-05-23T02:45:51.541Z,89.03
2017-05-23T02:47:04.137Z,89.31
2017-05-23T02:48:16.727Z,89.31
2017-05-23T02:49:28.687Z,89.12
2017-05-23T02:50:40.844Z,89.03
2017-05-23T02:51:53.404Z,89.03
2017-05-23T02:53:05.950Z,89.12
2017-05-23T02:54:18.523Z,89.22
2017-05-23T02:55:31.078Z,88.84
2017-05-23T02:56:42.712Z,89.22
2017-05-23T02:57:54.952Z,88.93
2017-05-23T02:59:07.475Z,88.93
2017-05-23T03:00:20.095Z,89.4
2017-05-23T03:01:32.315Z,89.12
2017-05-23T03:02:44.584Z,89.69
2017-05-23T03:03:56.556Z,89.12
2017-05-23T03:05:08.827Z,89.22
2017-05-23T03:06:20.905Z,89.65
2017-05-23T03:07:33.153Z,89.46
2017-05-23T03:08:45.383Z,89.75
2017-05-23T03:09:57.937Z,90.03
2017-05-23T03:11:10.211Z,89.79
2017-05-23T03:12:23.086Z,89.75
2017-05-23T03:13:35.673Z,89.69
2017-05-23T03:14:47.626Z,89.46
2017-05-23T03:15:59.850Z,89.36
2017-05-23T03:17:12.385Z,89.55
2017-05-23T03:18:24.925Z,89.26
2017-05-23T03:19:36.827Z,89.65
2017-05-23T03:20:49.427Z,89.75
2017-05-23T03:22:01.702Z,89.94
2017-05-23T03:23:13.965Z,90.31
2017-05-23T03:24:26.521Z,90.22
2017-05-23T03:25:39.106Z,89.69
2017-05-23T03:26:51.671Z,89.89
2017-05-23T03:28:03.287Z,89.94
2017-05-23T03:29:15.851Z,90.17
2017-05-23T03:30:28.117Z,90.31
2017-05-23T03:31:40.394Z,89.98
2017-05-23T03:32:52.911Z,89.94
2017-05-23T03:34:05.748Z,90.36
2017-05-23T03:35:18.302Z,90.26
2017-05-23T03:36:30.878Z,90.36
2017-05-23T03:37:43.467Z,90.08
2017-05-23T03:38:55.990Z,90.36
2017-05-23T03:40:08.260Z,90.08
2017-05-23T03:41:20.805Z,90.36
2017-05-23T03:42:33.069Z,90.17
2017-05-23T03:43:45.615Z,90.36
2017-05-23T03:44:58.470Z,90.17
2017-05-23T03:46:10.414Z,89.98
2017-05-23T03:47:23.017Z,89.89
2017-05-23T03:48:35.564Z,90.26
2017-05-23T03:49:47.815Z,90.36
2017-05-23T03:51:00.082Z,90.08
2017-05-23T03:52:12.710Z,89.98
2017-05-23T03:53:25.247Z,90.26
2017-05-23T03:54:37.859Z,90.36
2017-05-23T03:55:50.433Z,90.26
2017-05-23T03:57:03.000Z,90.08
2017-05-23T03:58:14.932Z,90.26
2017-05-23T03:59:27.201Z,90.12
2017-05-23T04:00:39.746Z,89.98
2017-05-23T04:01:52.341Z,90.08
2017-05-23T04:03:04.885Z,90.12
2017-05-23T04:04:17.433Z,90.31
2017-05-23T04:05:29.746Z,90.08
2017-05-23T04:06:41.970Z,89.54
2017-05-23T04:07:54.589Z,89.64
2017-05-23T04:09:07.185Z,90.03
2017-05-23T04:10:19.738Z,90.22
2017-05-23T04:11:32.309Z,90.03
2017-05-23T04:12:44.855Z,89.74
2017-05-23T04:13:57.372Z,89.54
2017-05-23T04:15:09.589Z,89.45
2017-05-23T04:16:22.153Z,89.45
2017-05-23T04:17:34.706Z,89.83
2017-05-23T04:18:47.326Z,89.74
2017-05-23T04:19:59.922Z,89.83
2017-05-23T04:21:12.179Z,89.83
2017-05-23T04:22:24.723Z,89.45
2017-05-23T04:23:37.336Z,89.45
2017-05-23T04:24:49.875Z,89.83
2017-05-23T04:26:02.413Z,89.54
2017-05-23T04:27:14.975Z,89.59
2017-05-23T04:28:27.238Z,89.17
2017-05-23T04:29:39.475Z,89.12
2017-05-23T04:30:51.719Z,89.12
2017-05-23T04:32:04.276Z,89.31
2017-05-23T04:33:16.496Z,88.92
2017-05-23T04:34:28.802Z,89.4
2017-05-23T04:35:41.377Z,89.12
2017-05-23T04:36:53.615Z,88.92
2017-05-23T04:38:06.169Z,88.83
2017-05-23T04:39:18.134Z,88.45
2017-05-23T04:40:30.377Z,88.26
2017-05-23T04:41:42.659Z,88.26
2017-05-23T04:42:54.928Z,88.54
2017-05-23T04:44:06.877Z,88.26
2017-05-23T04:45:19.161Z,88.26
2017-05-23T04:46:31.117Z,88.16
2017-05-23T04:47:43.707Z,87.4
2017-05-23T04:48:56.269Z,88.11
2017-05-23T04:50:08.564Z,87.73
2017-05-23T04:51:21.126Z,87.82
2017-05-23T04:52:33.372Z,87.82
2017-05-23T04:53:45.937Z,87.73
2017-05-23T04:54:58.191Z,87.54
2017-05-23T04:56:10.802Z,87.63
2017-05-23T04:57:23.071Z,87.44
2017-05-23T04:58:35.336Z,87.15
2017-05-23T04:59:47.923Z,86.87
2017-05-23T05:01:00.816Z,86.77
2017-05-23T05:02:13.357Z,87.01
2017-05-23T05:03:25.028Z,86.24
2017-05-23T05:04:37.296Z,86.05
2017-05-23T05:05:49.843Z,86.53
2017-05-23T05:07:02.100Z,86.43
2017-05-23T05:08:14.638Z,86.34
2017-05-23T05:09:26.937Z,86.53
2017-05-23T05:10:38.870Z,86.15
2017-05-23T05:11:51.440Z,85.67
2017-05-23T05:13:03.975Z,86.05
2017-05-23T05:14:16.239Z,85.67
2017-05-23T05:15:28.483Z,85.86
2017-05-23T05:16:40.730Z,86.1
2017-05-23T05:17:52.984Z,85.24
2017-05-23T05:19:05.577Z,85.24
2017-05-23T05:20:17.537Z,85.33
2017-05-23T05:21:30.064Z,85.24
2017-05-23T05:22:42.618Z,85.14
2017-05-23T05:23:55.125Z,84.66
2017-05-23T05:25:07.677Z,84.66
2017-05-23T05:26:20.274Z,84.66
2017-05-23T05:27:32.002Z,85.28
2017-05-23T05:28:44.247Z,84.7
2017-05-23T05:29:56.239Z,84.61
2017-05-23T05:31:08.592Z,84.32
2017-05-23T05:32:21.179Z,84.13
2017-05-23T05:33:33.133Z,84.32
2017-05-23T05:34:45.708Z,84.03
2017-05-23T05:35:57.364Z,83.65
2017-05-23T05:37:09.319Z,83.75
2017-05-23T05:38:21.532Z,83.84
2017-05-23T05:39:33.839Z,82.98
2017-05-23T05:40:46.342Z,83.84
2017-05-23T05:41:58.609Z,83.31
2017-05-23T05:43:11.179Z,82.83
2017-05-23T05:44:23.462Z,82.83
2017-05-23T05:45:35.765Z,83.12
2017-05-23T05:46:48.331Z,82.74
2017-05-23T05:48:00.649Z,82.26
2017-05-23T05:49:13.171Z,82.35
2017-05-23T05:50:25.400Z,82.07
2017-05-23T05:51:37.946Z,81.49
2017-05-23T05:52:50.179Z,81.88
2017-05-23T05:54:02.423Z,82.07
2017-05-23T05:55:14.374Z,82.64
2017-05-23T05:56:26.354Z,83.03
2017-05-23T05:57:38.619Z,82.93
2017-05-23T05:58:51.215Z,83.03
2017-05-23T06:00:02.868Z,82.83
2017-05-23T06:01:14.523Z,83.12
2017-05-23T06:02:26.779Z,82.54
2017-05-23T06:03:39.366Z,82.17
2017-05-23T06:04:51.620Z,82.3
2017-05-23T06:06:04.198Z,82.2
2017-05-23T06:07:15.834Z,81.82
2017-05-23T06:08:28.383Z,81.73
2017-05-23T06:09:40.363Z,81.15
2017-05-23T06:10:52.630Z,80.87
2017-05-23T06:12:04.851Z,80.38
2017-05-23T06:13:17.140Z,81.05
2017-05-23T06:14:29.702Z,80.9
2017-05-23T06:15:41.655Z,81.38
2017-05-23T06:16:54.203Z,81.29
2017-05-23T06:18:06.773Z,80.9
2017-05-23T06:19:19.047Z,80.9
2017-05-23T06:20:30.721Z,81.33
2017-05-23T06:21:42.979Z,80.08
2017-05-23T06:22:55.481Z,78.93
2017-05-23T06:24:07.751Z,78.49
2017-05-23T06:25:20.016Z,78.2
2017-05-23T06:26:32.270Z,77.95
2017-05-23T06:27:44.534Z,76.52
2017-05-23T06:28:57.113Z,76.56
2017-05-23T06:30:09.375Z,75.4
2017-05-23T06:31:21.961Z,75.12
2017-05-23T06:32:33.925Z,74.29
2017-05-23T06:33:45.914Z,74.43
2017-05-23T06:34:57.834Z,74.33
2017-05-23T06:36:10.118Z,74.37
2017-05-23T06:37:22.072Z,72.67
2017-05-23T06:38:34.366Z,71.71
2017-05-23T06:39:46.650Z,71.65
2017-05-23T06:40:58.949Z,70.24
2017-05-23T06:42:11.541Z,69.12
2017-05-23T06:43:24.106Z,68
2017-05-23T06:44:36.927Z,66.78
2017-05-23T06:45:49.478Z,66.24
2017-05-23T06:47:01.718Z,64.15
2017-05-23T06:48:14.264Z,62.92
2017-05-23T06:49:26.560Z,61.86
2017-05-23T06:50:39.137Z,60.38
2017-05-23T06:51:51.378Z,58.37
2017-05-23T06:53:03.297Z,55.77
2017-05-23T06:54:15.853Z,55.02
2017-05-23T06:55:27.853Z,53.41
2017-05-23T06:56:40.442Z,52.66
2017-05-23T06:57:52.420Z,51.78
2017-05-23T06:59:05.028Z,51.81
2017-05-23T07:00:17.865Z,51.62
2017-05-23T07:01:30.419Z,51.45
2017-05-23T07:02:42.984Z,49.73
2017-05-23T07:03:55.516Z,48.47
2017-05-23T07:05:07.841Z,48.59
2017-05-23T07:06:20.110Z,48.3
2017-05-23T07:07:32.348Z,48.13
2017-05-23T07:08:44.902Z,46.6
2017-05-23T07:09:57.429Z,46.21
2017-05-23T07:11:09.081Z,46.14
2017-05-23T07:12:21.663Z,45.94
2017-05-23T07:13:34.229Z,46.23
2017-05-23T07:14:46.780Z,46.35
2017-05-23T07:15:58.427Z,45.09
2017-05-23T07:17:10.398Z,43.82
2017-05-23T07:18:22.942Z,43.36
2017-05-23T07:19:34.899Z,43.36
2017-05-23T07:20:47.520Z,43.65
2017-05-23T07:21:59.783Z,44.24
2017-05-23T07:23:12.046Z,43.65
2017-05-23T07:24:23.952Z,44.16
2017-05-23T07:25:36.498Z,44.06
2017-05-23T07:26:48.439Z,43.6
2017-05-23T07:28:00.730Z,42.25
2017-05-23T07:29:12.707Z,42.06
2017-05-23T07:30:24.987Z,41.89
2017-05-23T07:31:37.280Z,41.5
2017-05-23T07:32:49.902Z,41.11
2017-05-23T07:34:02.485Z,40.93
2017-05-23T07:35:14.785Z,40.95
2017-05-23T07:36:27.059Z,40.64
2017-05-23T07:37:39.654Z,40.27
2017-05-23T07:38:51.926Z,39.98
2017-05-23T07:40:04.581Z,40.48
2017-05-23T07:41:16.868Z,41.46
2017-05-23T07:42:29.455Z,41.27
2017-05-23T07:43:42.017Z,40.58
2017-05-23T07:44:54.298Z,39.61
2017-05-23T07:46:06.851Z,38.53
2017-05-23T07:47:18.503Z,37.85
2017-05-23T07:48:31.077Z,37.29
2017-05-23T07:49:43.070Z,37.65
2017-05-23T07:50:55.065Z,37.75
2017-05-23T07:52:07.647Z,37.95
2017-05-23T07:53:20.184Z,37.48
2017-05-23T07:54:31.552Z,37.37
2017-05-23T07:55:44.174Z,37.19
2017-05-23T07:56:56.773Z,37.38
2017-05-23T07:58:08.760Z,37.38
2017-05-23T07:59:21.331Z,36.62
2017-05-23T08:00:33.879Z,36.72
2017-05-23T08:01:46.471Z,36.82
2017-05-23T08:02:58.768Z,36.91
2017-05-23T08:04:11.070Z,37.21
2017-05-23T08:05:23.066Z,37.02
2017-05-23T08:06:35.632Z,36.73
2017-05-23T08:07:47.925Z,36.15
2017-05-23T08:08:59.616Z,36.24
2017-05-23T08:10:11.913Z,36.15
2017-05-23T08:11:24.205Z,35.56
2017-05-23T08:12:36.818Z,35.46
2017-05-23T08:13:49.124Z,35.27
2017-05-23T08:15:01.386Z,36.05
2017-05-23T08:16:12.755Z,36.83
2017-05-23T08:17:25.076Z,37.52
2017-05-23T08:18:37.715Z,37.02
2017-05-23T08:19:50.291Z,36.54
2017-05-23T08:21:01.968Z,36.15
2017-05-23T08:22:13.935Z,36.83
2017-05-23T08:23:26.508Z,37.81
2017-05-23T08:24:38.772Z,37.24
2017-05-23T08:25:51.374Z,36.85
2017-05-23T08:27:03.638Z,37.04
2017-05-23T08:28:15.639Z,36.26
2017-05-23T08:29:28.255Z,36.26
2017-05-23T08:30:40.852Z,36.38
2017-05-23T08:31:53.149Z,36.47
2017-05-23T08:33:05.734Z,35.69
2017-05-23T08:34:17.687Z,35.79
2017-05-23T08:35:30.306Z,35.4
2017-05-23T08:36:42.272Z,35.22
2017-05-23T08:37:55.080Z,34.42
2017-05-23T08:39:07.348Z,34.13
2017-05-23T08:40:19.623Z,34.33
2017-05-23T08:41:31.888Z,34.11
2017-05-23T08:42:44.140Z,34.21
2017-05-23T08:43:56.748Z,34.5
2017-05-23T08:45:08.995Z,34.5
2017-05-23T08:46:21.589Z,34.88
2017-05-23T08:47:33.519Z,34.78
2017-05-23T08:48:46.145Z,34.78
2017-05-23T08:49:58.752Z,35.25
2017-05-23T08:51:10.998Z,35.55
2017-05-23T08:52:23.283Z,35.35
2017-05-23T08:53:35.577Z,35.82
2017-05-23T08:54:47.874Z,36.02
2017-05-23T08:55:59.845Z,35.92
2017-05-23T08:57:12.472Z,35.82
2017-05-23T08:58:25.081Z,35.92
2017-05-23T08:59:37.924Z,36.7
2017-05-23T09:00:50.535Z,37.37
2017-05-23T09:02:02.811Z,36.1
2017-05-23T09:03:15.075Z,36.78
2017-05-23T09:04:27.408Z,38.12
2017-05-23T09:05:39.684Z,38.42
2017-05-23T09:06:52.254Z,38.02
2017-05-23T09:08:04.816Z,36.19
2017-05-23T09:09:16.769Z,35.51
2017-05-23T09:10:28.473Z,34.73
2017-05-23T09:11:41.139Z,34.73
2017-05-23T09:12:53.162Z,35.31
2017-05-23T09:14:05.177Z,34.92
2017-05-23T09:15:17.749Z,34.53
2017-05-23T09:16:29.720Z,34.34
2017-05-23T09:17:42.301Z,34.73
2017-05-23T09:18:54.886Z,35.02
2017-05-23T09:20:07.463Z,35.41
2017-05-23T09:21:20.054Z,35.22
2017-05-23T09:22:32.630Z,33.97
2017-05-23T09:23:44.900Z,33.77
2017-05-23T09:24:57.158Z,33.58
2017-05-23T09:26:09.404Z,33.87
2017-05-23T09:27:21.933Z,33.01
2017-05-23T09:28:34.196Z,33.18
2017-05-23T09:29:46.758Z,33.97
2017-05-23T09:30:59.324Z,33.87
2017-05-23T09:32:11.618Z,34.45
2017-05-23T09:33:23.569Z,34.53
2017-05-23T09:34:35.824Z,34.63
2017-05-23T09:35:47.771Z,34.73
2017-05-23T09:37:00.007Z,35.3
2017-05-23T09:38:12.226Z,35.59
2017-05-23T09:39:23.888Z,35.59
2017-05-23T09:40:36.459Z,35.08
2017-05-23T09:41:48.704Z,34.99
2017-05-23T09:43:01.260Z,34.88
2017-05-23T09:44:13.520Z,35.06
2017-05-23T09:45:25.789Z,35.06
2017-05-23T09:46:38.345Z,35.16
2017-05-23T09:47:50.935Z,35.65
2017-05-23T09:49:03.487Z,35.85
2017-05-23T09:50:15.426Z,35.93
2017-05-23T09:51:27.678Z,36.12
2017-05-23T09:52:39.672Z,35.83
2017-05-23T09:53:51.934Z,36.1
2017-05-23T09:55:04.481Z,36.59
2017-05-23T09:56:16.702Z,36.77
2017-05-23T09:57:28.658Z,37.06
2017-05-23T09:58:41.225Z,36.96
2017-05-23T09:59:53.499Z,37.54
2017-05-23T10:01:05.461Z,37.45
2017-05-23T10:02:18.031Z,36.98
2017-05-23T10:03:30.277Z,36.22
2017-05-23T10:04:42.823Z,35.63
2017-05-23T10:05:55.372Z,35.85
2017-05-23T10:07:07.619Z,34.89
2017-05-23T10:08:20.171Z,34.99
2017-05-23T10:09:32.443Z,35.49
2017-05-23T10:10:44.412Z,35.69
2017-05-23T10:11:56.659Z,35.22
2017-05-23T10:13:09.223Z,34.92
2017-05-23T10:14:21.777Z,34.57
2017-05-23T10:15:34.044Z,33.98
2017-05-23T10:16:46.289Z,33.41
2017-05-23T10:17:58.254Z,33.14
2017-05-23T10:19:10.811Z,32.75
2017-05-23T10:20:23.081Z,32.46
2017-05-23T10:21:34.741Z,32.48
2017-05-23T10:22:47.032Z,32.19
2017-05-23T10:23:59.591Z,31.91
2017-05-23T10:25:11.540Z,31.71
2017-05-23T10:26:23.802Z,31.83
2017-05-23T10:27:35.754Z,31.55
2017-05-23T10:28:47.699Z,31.27
2017-05-23T10:30:00.289Z,31.96
2017-05-23T10:31:12.536Z,30.4
2017-05-23T10:32:25.088Z,29.83
2017-05-23T10:33:37.625Z,29.75
2017-05-23T10:34:50.171Z,30.43
2017-05-23T10:36:02.150Z,31.71
2017-05-23T10:37:14.967Z,31.81
2017-05-23T10:38:27.562Z,30.53
2017-05-23T10:39:39.203Z,29.85
2017-05-23T10:40:51.128Z,29.85
2017-05-23T10:42:03.083Z,30.14
2017-05-23T10:43:14.467Z,30.65
2017-05-23T10:44:26.724Z,30.45
2017-05-23T10:45:38.761Z,29.96
2017-05-23T10:46:50.429Z,30.27
2017-05-23T10:48:02.982Z,29.96
2017-05-23T10:49:15.232Z,29.76
2017-05-23T10:50:27.800Z,30.46
2017-05-23T10:51:40.047Z,29.27
2017-05-23T10:52:52.367Z,28.11
2017-05-23T10:54:04.641Z,27.72
2017-05-23T10:55:17.186Z,27.92
2017-05-23T10:56:29.450Z,30
2017-05-23T10:57:41.429Z,30.3
2017-05-23T10:58:53.940Z,29.8
2017-05-23T11:00:06.188Z,29.31
2017-05-23T11:01:18.467Z,27.94
2017-05-23T11:02:30.430Z,28.63
2017-05-23T11:03:42.706Z,28.24
2017-05-23T11:04:55.297Z,28.16
2017-05-23T11:06:07.275Z,27.27
2017-05-23T11:07:19.544Z,26.59
2017-05-23T11:08:32.114Z,26.01
2017-05-23T11:09:44.061Z,26.31
2017-05-23T11:10:56.664Z,27.2
2017-05-23T11:12:08.928Z,28.37
2017-05-23T11:13:21.200Z,27.79
2017-05-23T11:14:33.764Z,28.28
2017-05-23T11:15:46.039Z,28.09
2017-05-23T11:16:58.590Z,27.78
2017-05-23T11:18:10.852Z,27.48
2017-05-23T11:19:23.423Z,26.59
2017-05-23T11:20:36.227Z,26.59
2017-05-23T11:21:48.502Z,26.1
2017-05-23T11:23:00.486Z,25.92
2017-05-23T11:24:13.057Z,25.92
2017-05-23T11:25:25.627Z,25.54
2017-05-23T11:26:37.907Z,25.55
2017-05-23T11:27:50.176Z,25.76
2017-05-23T11:29:02.469Z,25.37
2017-05-23T11:30:14.743Z,24.09
2017-05-23T11:31:27.357Z,24.8
2017-05-23T11:32:39.332Z,24.29
2017-05-23T11:33:51.870Z,24.6
2017-05-23T11:35:04.099Z,24.9
2017-05-23T11:36:16.340Z,24.02
2017-05-23T11:37:28.866Z,23.43
2017-05-23T11:38:40.816Z,23.41
2017-05-23T11:39:53.057Z,23.32
2017-05-23T11:41:05.403Z,23.91
2017-05-23T11:42:17.643Z,23.71
2017-05-23T11:43:29.872Z,23.9
2017-05-23T11:44:42.436Z,23.99
2017-05-23T11:45:54.415Z,23.91
2017-05-23T11:47:06.975Z,23.9
2017-05-23T11:48:19.258Z,23.81
2017-05-23T11:49:31.804Z,23.51
2017-05-23T11:50:44.395Z,23.32
2017-05-23T11:51:56.962Z,23.22
2017-05-23T11:53:09.536Z,23.5
2017-05-23T11:54:21.501Z,24.1
2017-05-23T11:55:34.057Z,24.88
2017-05-23T11:56:46.321Z,25.09
2017-05-23T11:57:57.974Z,25.39
2017-05-23T11:59:10.320Z,24.8
2017-05-23T12:00:22.895Z,24.2
2017-05-23T12:01:35.458Z,24.11
2017-05-23T12:02:47.734Z,24.11
2017-05-23T12:04:00.017Z,23.73
2017-05-23T12:05:11.671Z,23.73
2017-05-23T12:06:23.640Z,23.63
2017-05-23T12:07:36.205Z,23.15
2017-05-23T12:08:48.463Z,23.35
2017-05-23T12:10:00.436Z,23.35
2017-05-23T12:11:12.094Z,23.46
2017-05-23T12:12:24.672Z,23.56
2017-05-23T12:13:37.223Z,23.16
2017-05-23T12:14:49.506Z,23.15
2017-05-23T12:16:01.181Z,23.36
2017-05-23T12:17:13.756Z,23.85
2017-05-23T12:18:26.327Z,23.05
2017-05-23T12:19:38.874Z,22.85
2017-05-23T12:20:51.434Z,22.95
2017-05-23T12:22:03.689Z,23.06
2017-05-23T12:23:15.656Z,23.06
2017-05-23T12:24:28.211Z,23.26
2017-05-23T12:25:40.799Z,23.06
2017-05-23T12:26:52.774Z,22.96
2017-05-23T12:28:05.066Z,23.57
2017-05-23T12:29:17.336Z,23.47
2017-05-23T12:30:28.981Z,23.07
2017-05-23T12:31:41.232Z,23.18
2017-05-23T12:32:53.801Z,22.78
2017-05-23T12:34:05.468Z,23.06
2017-05-23T12:35:17.418Z,23.36
2017-05-23T12:36:29.708Z,23.27
2017-05-23T12:37:42.268Z,22.67
2017-05-23T12:38:54.532Z,22.56
2017-05-23T12:40:06.803Z,22.45
2017-05-23T12:41:18.766Z,22.94
2017-05-23T12:42:31.337Z,22.73
2017-05-23T12:43:43.593Z,23.22
2017-05-23T12:44:56.166Z,23.91
2017-05-23T12:46:08.428Z,23.99
2017-05-23T12:47:21.007Z,24.09
2017-05-23T12:48:33.004Z,24.19
2017-05-23T12:49:45.263Z,23.98
2017-05-23T12:50:57.809Z,23.98
2017-05-23T12:52:09.458Z,23.87
2017-05-23T12:53:21.436Z,24.46
2017-05-23T12:54:33.722Z,24.46
2017-05-23T12:55:45.697Z,24.45
2017-05-23T12:56:57.639Z,24.55
2017-05-23T12:58:10.188Z,24.07
2017-05-23T12:59:22.436Z,24.37
2017-05-23T13:00:35.002Z,25.14
2017-05-23T13:01:47.554Z,25.24
2017-05-23T13:02:59.822Z,24.93
2017-05-23T13:04:12.070Z,25.13
2017-05-23T13:05:24.043Z,25.14
2017-05-23T13:06:36.609Z,25.92
2017-05-23T13:07:48.559Z,26.02
2017-05-23T13:09:00.802Z,25.63
2017-05-23T13:10:13.047Z,24.95
2017-05-23T13:11:25.372Z,24.85
2017-05-23T13:12:37.921Z,24.95
2017-05-23T13:13:49.881Z,25.24
2017-05-23T13:15:02.134Z,25.34
2017-05-23T13:16:14.086Z,25.04
2017-05-23T13:17:26.655Z,24.95
2017-05-23T13:18:38.918Z,24.93
2017-05-23T13:19:51.169Z,25.52
2017-05-23T13:21:03.731Z,25.12
2017-05-23T13:22:16.277Z,24.92
2017-05-23T13:23:28.812Z,25.01
2017-05-23T13:24:41.380Z,25.2
2017-05-23T13:25:53.940Z,26.17
2017-05-23T13:27:05.870Z,26.64
2017-05-23T13:28:18.439Z,26.64
2017-05-23T13:29:30.979Z,26.63
2017-05-23T13:30:43.256Z,27.01
2017-05-23T13:31:55.823Z,27.01
2017-05-23T13:33:08.075Z,27.4
2017-05-23T13:34:20.320Z,27.49
2017-05-23T13:35:32.886Z,27.37
2017-05-23T13:36:45.407Z,27.97
2017-05-23T13:37:57.684Z,28.13
2017-05-23T13:39:09.905Z,27.94
2017-05-23T13:40:22.466Z,27.63
2017-05-23T13:41:34.969Z,27.92
2017-05-23T13:42:47.519Z,27.83
2017-05-23T13:43:59.755Z,28.81
2017-05-23T13:45:12.283Z,29.88
2017-05-23T13:46:24.553Z,29.59
2017-05-23T13:47:36.805Z,29.02
2017-05-23T13:48:49.024Z,28.23
2017-05-23T13:50:00.419Z,28.51
2017-05-23T13:51:12.389Z,28.71
2017-05-23T13:52:24.936Z,29.1
2017-05-23T13:53:36.883Z,29.18
2017-05-23T13:54:48.868Z,29.08
2017-05-23T13:56:00.821Z,29.07
2017-05-23T13:57:12.773Z,29.46
2017-05-23T13:58:24.714Z,29.64
2017-05-23T13:59:36.976Z,29.55
2017-05-23T14:00:48.927Z,30.04
2017-05-23T14:02:01.169Z,30.12
2017-05-23T14:03:13.119Z,30.4
2017-05-23T14:04:25.689Z,30.69
2017-05-23T14:05:37.921Z,30.98
2017-05-23T14:06:50.502Z,30.97
2017-05-23T14:08:03.047Z,31.36
2017-05-23T14:09:15.294Z,31.46
2017-05-23T14:10:27.551Z,31.45
2017-05-23T14:11:39.810Z,31.84
2017-05-23T14:12:51.434Z,31.54
2017-05-23T14:14:03.981Z,31.84
2017-05-23T14:15:16.227Z,31.74
2017-05-23T14:16:28.780Z,31.84
2017-05-23T14:17:40.750Z,31.84
2017-05-23T14:18:52.693Z,32.03
2017-05-23T14:20:04.932Z,32.42
2017-05-23T14:21:17.178Z,32.91
2017-05-23T14:22:29.703Z,33.11
2017-05-23T14:23:41.945Z,32.71
2017-05-23T14:24:53.591Z,32.62
2017-05-23T14:26:05.552Z,31.93
2017-05-23T14:27:17.195Z,32.13
2017-05-23T14:28:29.454Z,31.84
2017-05-23T14:29:41.729Z,32.5
2017-05-23T14:30:54.006Z,33.58
2017-05-23T14:32:06.553Z,33.18
2017-05-23T14:33:18.492Z,32.99
2017-05-23T14:34:31.043Z,32.89
2017-05-23T14:35:43.291Z,33.18
2017-05-23T14:36:55.538Z,33.65
2017-05-23T14:38:08.079Z,33.65
2017-05-23T14:39:20.352Z,33.56
2017-05-23T14:40:32.920Z,33.65
2017-05-23T14:41:45.466Z,33.93
2017-05-23T14:42:57.711Z,33.34
2017-05-23T14:44:09.958Z,33.64
2017-05-23T14:45:22.196Z,33.73
2017-05-23T14:46:34.453Z,33.73
2017-05-23T14:47:46.424Z,33.64
2017-05-23T14:48:58.692Z,33.34
2017-05-23T14:50:10.956Z,34.03
2017-05-23T14:51:23.510Z,33.83
2017-05-23T14:52:36.047Z,33.62
2017-05-23T14:53:48.027Z,33.43
2017-05-23T14:54:59.701Z,33.43
2017-05-23T14:56:11.644Z,33.72
2017-05-23T14:57:23.635Z,33.43
2017-05-23T14:58:36.205Z,33.7
2017-05-23T14:59:48.477Z,33.72
2017-05-23T15:01:00.746Z,33.7
2017-05-23T15:02:12.989Z,33.7
2017-05-23T15:03:25.245Z,34.58
2017-05-23T15:04:37.793Z,34.47
2017-05-23T15:05:50.035Z,35.05
2017-05-23T15:07:02.302Z,35.05
2017-05-23T15:08:14.572Z,35.83
2017-05-23T15:09:27.115Z,35.34
2017-05-23T15:10:39.665Z,35.61
2017-05-23T15:11:52.267Z,35.52
2017-05-23T15:13:04.533Z,35.71
2017-05-23T15:14:16.784Z,36.59
2017-05-23T15:15:28.727Z,36.18
2017-05-23T15:16:40.952Z,36.67
2017-05-23T15:17:53.214Z,36.96
2017-05-23T15:19:05.445Z,36.96
2017-05-23T15:20:17.414Z,36.77
2017-05-23T15:21:29.678Z,36.77
2017-05-23T15:22:41.930Z,36.67
2017-05-23T15:23:54.191Z,36.67
2017-05-23T15:25:06.716Z,36.67
2017-05-23T15:26:18.958Z,36.67
2017-05-23T15:27:31.508Z,36.67
2017-05-23T15:28:44.061Z,36.08
2017-05-23T15:29:56.308Z,36.28
2017-05-23T15:31:08.249Z,36.96
2017-05-23T15:32:20.770Z,37.04
2017-05-23T15:33:32.417Z,37.24